createdAt,value
2019-06-07T00:01:40.327Z,17.42
2019-06-07T00:04:30.170Z,17.36
2019-06-07T00:07:22.091Z,17.34
2019-06-07T00:13:18.750Z,17.38
2019-06-07T00:15:58.967Z,17.47
2019-06-07T00:18:48.813Z,17.55
2019-06-07T00:22:13.455Z,17.47
2019-06-07T00:24:18.637Z,17.44
2019-06-07T00:26:58.892Z,17.52
2019-06-07T00:29:37.397Z,17.50
2019-06-07T00:32:27.235Z,17.44
2019-06-07T00:35:20.231Z,17.37
2019-06-07T00:38:00.240Z,17.48
2019-06-07T00:40:50.045Z,17.44
2019-06-07T00:43:39.935Z,17.35
2019-06-07T00:46:14.083Z,17.35
2019-06-07T00:48:54.861Z,17.42
2019-06-07T00:51:50.358Z,17.35
2019-06-07T00:54:29.944Z,17.41
2019-06-07T00:57:21.513Z,17.36
2019-06-07T01:00:03.044Z,17.32
2019-06-07T01:02:52.908Z,17.32
2019-06-07T01:05:42.716Z,17.33
2019-06-07T01:08:32.521Z,17.21
2019-06-07T01:11:25.716Z,17.35
2019-06-07T01:14:14.549Z,17.28
2019-06-07T01:17:13.505Z,17.27
2019-06-07T01:19:40.797Z,17.27
2019-06-07T01:22:11.452Z,17.28
2019-06-07T01:25:01.263Z,17.26
2019-06-07T01:27:51.047Z,17.16
2019-06-07T01:30:40.875Z,17.08
2019-06-07T01:33:49.933Z,16.99
2019-06-07T01:36:24.394Z,16.97
2019-06-07T01:39:06.223Z,16.89
2019-06-07T01:41:55.998Z,16.92
2019-06-07T01:44:45.791Z,16.86
2019-06-07T01:47:35.615Z,16.87
2019-06-07T01:50:27.157Z,16.77
2019-06-07T01:53:08.340Z,16.75
2019-06-07T01:55:58.126Z,16.82
2019-06-07T01:58:48.087Z,16.72
2019-06-07T02:01:37.931Z,16.71
2019-06-07T02:04:32.420Z,16.71
2019-06-07T02:07:11.167Z,16.75
2019-06-07T02:10:00.983Z,16.73
2019-06-07T02:12:50.746Z,16.76
2019-06-07T02:15:40.547Z,16.76
2019-06-07T02:18:34.728Z,16.69
2019-06-07T02:21:13.134Z,16.72
2019-06-07T02:24:02.929Z,16.67
2019-06-07T02:26:52.725Z,16.73
2019-06-07T02:29:42.543Z,16.68
2019-06-07T02:32:36.597Z,16.72
2019-06-07T02:35:40.499Z,16.67
2019-06-07T02:38:17.434Z,16.70
2019-06-07T02:41:07.286Z,16.70
2019-06-07T02:44:16.009Z,16.71
2019-06-07T02:47:05.875Z,16.59
2019-06-07T02:49:55.762Z,16.63
2019-06-07T02:52:45.667Z,16.63
2019-06-07T02:56:26.013Z,16.68
2019-06-07T02:58:20.513Z,16.64
2019-06-07T03:01:10.386Z,16.67
2019-06-07T03:04:00.302Z,16.75
2019-06-07T03:12:56.919Z,16.65
2019-06-07T03:15:50.243Z,16.70
2019-06-07T03:18:48.871Z,16.67
2019-06-07T03:21:41.860Z,16.64
2019-06-07T03:24:19.097Z,16.63
2019-06-07T03:27:36.291Z,16.52
2019-06-07T03:29:53.772Z,16.55
2019-06-07T03:33:02.443Z,16.57
2019-06-07T03:35:52.260Z,16.50
2019-06-07T03:38:42.120Z,16.59
2019-06-07T03:41:40.056Z,16.53
2019-06-07T03:44:14.838Z,16.63
2019-06-07T03:47:04.694Z,16.59
2019-06-07T03:49:54.524Z,16.63
2019-06-07T03:52:44.319Z,16.69
2019-06-07T03:55:37.772Z,16.75
2019-06-07T04:00:55.128Z,16.76
2019-06-07T04:03:51.453Z,16.88
2019-06-07T04:06:41.947Z,17.00
2019-06-07T04:09:14.514Z,16.96
2019-06-07T04:12:04.315Z,17.03
2019-06-07T04:14:54.177Z,17.06
2019-06-07T04:18:00.712Z,17.19
2019-06-07T04:20:29.356Z,17.23
2019-06-07T04:23:25.104Z,17.30
2019-06-07T04:25:43.425Z,17.41
2019-06-07T04:29:24.878Z,17.46
2019-06-07T04:31:10.935Z,17.52
2019-06-07T04:34:00.793Z,17.53
2019-06-07T04:45:46.235Z,17.74
2019-06-07T04:51:36.080Z,17.84
2019-06-07T04:54:25.481Z,17.80
2019-06-07T04:57:15.407Z,17.91
2019-06-07T05:00:32.907Z,17.83
2019-06-07T05:02:43.829Z,17.81
2019-06-07T05:05:34.518Z,17.78
2019-06-07T05:08:28.353Z,17.89
2019-06-07T05:11:08.812Z,17.87
2019-06-07T05:13:59.217Z,17.93
2019-06-07T05:16:34.735Z,17.94
2019-06-07T05:19:22.176Z,18.00
2019-06-07T05:22:03.463Z,18.02
2019-06-07T05:24:44.163Z,18.03
2019-06-07T05:27:37.925Z,18.02
2019-06-07T05:33:15.051Z,18.04
2019-06-07T05:36:04.966Z,17.96
2019-06-07T05:38:54.826Z,18.03
2019-06-07T05:41:44.670Z,18.10
2019-06-07T05:44:36.369Z,18.31
2019-06-07T05:47:17.815Z,18.24
2019-06-07T05:50:38.037Z,18.15
2019-06-07T05:52:50.816Z,18.34
2019-06-07T05:55:44.170Z,18.24
2019-06-07T05:58:24.430Z,18.40
2019-06-07T06:01:42.024Z,18.46
2019-06-07T06:04:05.822Z,18.49
2019-06-07T06:06:55.680Z,18.72
2019-06-07T06:09:46.108Z,18.85
2019-06-07T06:12:35.255Z,19.04
2019-06-07T06:15:06.203Z,19.01
2019-06-07T06:17:57.018Z,19.40
2019-06-07T06:21:00.889Z,19.34
2019-06-07T06:26:52.173Z,19.66
2019-06-07T06:32:41.300Z,20.04
2019-06-07T06:35:06.224Z,20.08
2019-06-07T06:37:56.060Z,19.78
2019-06-07T06:40:49.048Z,19.75
2019-06-07T06:43:23.578Z,19.81
2019-06-07T06:46:13.414Z,19.80
2019-06-07T06:49:03.234Z,19.87
2019-06-07T06:51:53.866Z,20.26
2019-06-07T06:54:42.999Z,20.52
2019-06-07T06:57:19.653Z,20.91
2019-06-07T06:59:58.020Z,20.67
2019-06-07T07:03:39.300Z,20.49
2019-06-07T07:05:30.692Z,20.84
2019-06-07T07:08:01.259Z,21.21
2019-06-07T07:10:53.161Z,21.27
2019-06-07T07:13:28.686Z,21.58
2019-06-07T07:16:18.598Z,21.50
2019-06-07T07:19:08.425Z,21.54
2019-06-07T07:21:58.313Z,21.23
2019-06-07T07:27:53.828Z,21.00
2019-06-07T07:34:23.802Z,21.01
2019-06-07T07:36:39.731Z,20.95
2019-06-07T07:39:18.804Z,21.04
2019-06-07T07:42:20.777Z,21.36
2019-06-07T07:44:47.173Z,21.53
2019-06-07T07:50:16.036Z,21.88
2019-06-07T07:53:06.125Z,22.13
2019-06-07T07:56:00.077Z,22.09
2019-06-07T07:58:38.915Z,22.12
2019-06-07T08:01:11.274Z,22.29
2019-06-07T08:03:54.928Z,22.34
2019-06-07T08:06:37.776Z,22.55
2019-06-07T08:09:09.102Z,22.51
2019-06-07T08:12:00.771Z,22.46
2019-06-07T08:15:03.551Z,22.61
2019-06-07T08:17:44.568Z,22.51
2019-06-07T08:21:14.983Z,22.65
2019-06-07T08:23:58.354Z,22.79
2019-06-07T08:26:39.258Z,22.91
2019-06-07T08:29:44.398Z,23.15
2019-06-07T08:32:12.341Z,23.31
2019-06-07T08:35:06.451Z,23.28
2019-06-07T08:38:15.218Z,23.41
2019-06-07T08:40:23.323Z,23.62
2019-06-07T08:43:20.735Z,23.92
2019-06-07T08:46:03.729Z,24.04
2019-06-07T08:48:39.877Z,24.09
2019-06-07T08:51:29.678Z,24.15
2019-06-07T08:54:22.947Z,24.06
2019-06-07T08:57:19.354Z,24.20
2019-06-07T08:59:45.858Z,23.86
2019-06-07T09:02:23.870Z,23.77
2019-06-07T09:05:06.104Z,23.93
2019-06-07T09:07:42.676Z,24.43
2019-06-07T09:10:32.817Z,24.88
2019-06-07T09:13:22.908Z,25.30
2019-06-07T09:16:12.815Z,25.56
2019-06-07T09:19:10.102Z,25.74
2019-06-07T09:21:40.215Z,26.06
2019-06-07T09:24:30.059Z,26.15
2019-06-07T09:27:19.878Z,26.19
2019-06-07T09:30:16.265Z,26.27
2019-06-07T09:32:42.755Z,26.23
2019-06-07T09:35:32.688Z,26.10
2019-06-07T09:38:26.111Z,26.12
2019-06-07T09:44:23.760Z,26.51
2019-06-07T09:47:22.427Z,26.70
2019-06-07T09:49:39.870Z,27.13
2019-06-07T09:52:29.726Z,27.32
2019-06-07T09:55:24.533Z,27.35
2019-06-07T09:58:47.670Z,27.19
2019-06-07T10:00:46.110Z,27.02
2019-06-07T10:03:47.699Z,27.25
2019-06-07T10:06:19.951Z,27.03
2019-06-07T10:11:53.617Z,27.26
2019-06-07T10:14:45.190Z,27.24
2019-06-07T10:17:35.048Z,27.35
2019-06-07T10:20:25.282Z,27.78
2019-06-07T10:23:15.091Z,28.00
2019-06-07T10:26:06.028Z,27.98
2019-06-07T10:28:43.194Z,27.99
2019-06-07T10:31:33.010Z,27.97
2019-06-07T10:34:22.990Z,27.94
2019-06-07T10:37:15.606Z,28.28
2019-06-07T10:40:05.355Z,28.45
2019-06-07T10:42:55.185Z,28.44
2019-06-07T10:45:44.946Z,28.48
2019-06-07T10:48:34.810Z,28.54
2019-06-07T10:51:24.556Z,28.55
2019-06-07T10:54:24.812Z,28.47
2019-06-07T10:57:09.363Z,28.49
2019-06-07T10:59:48.873Z,28.76
2019-06-07T11:02:38.864Z,28.91
2019-06-07T11:05:28.720Z,28.68
2019-06-07T11:08:37.574Z,28.65
2019-06-07T11:11:27.412Z,28.95
2019-06-07T11:14:17.223Z,29.43
2019-06-07T11:16:47.619Z,29.87
2019-06-07T11:19:37.418Z,29.63
2019-06-07T11:22:27.204Z,29.40
2019-06-07T11:25:16.973Z,29.26
2019-06-07T11:28:08.236Z,29.67
2019-06-07T11:30:58.509Z,29.99
2019-06-07T11:33:48.328Z,30.23
2019-06-07T11:36:38.221Z,29.97
2019-06-07T11:39:28.052Z,29.70
2019-06-07T11:41:58.466Z,30.29
2019-06-07T11:44:56.797Z,30.78
2019-06-07T11:47:33.056Z,31.13
2019-06-07T11:50:03.523Z,31.38
2019-06-07T11:52:33.949Z,31.57
2019-06-07T11:55:23.795Z,31.79
2019-06-07T11:58:17.289Z,31.91
2019-06-07T12:00:51.189Z,31.82
2019-06-07T12:03:40.998Z,31.86
2019-06-07T12:06:31.950Z,31.99
2019-06-07T12:09:21.761Z,32.13
2019-06-07T12:12:12.602Z,31.90
2019-06-07T12:14:49.367Z,31.14
2019-06-07T12:17:39.487Z,30.72
2019-06-07T12:20:29.366Z,31.08
2019-06-07T12:23:20.174Z,31.19
2019-06-07T12:26:02.889Z,31.55
2019-06-07T12:28:52.713Z,32.26
2019-06-07T12:31:42.730Z,31.78
2019-06-07T12:34:32.635Z,31.53
2019-06-07T12:37:32.772Z,31.51
2019-06-07T12:43:12.333Z,31.77
2019-06-07T12:46:02.645Z,32.06
2019-06-07T12:48:52.589Z,32.18
2019-06-07T12:51:42.442Z,32.37
2019-06-07T12:54:32.338Z,32.32
2019-06-07T12:57:22.528Z,32.26
2019-06-07T13:03:16.219Z,32.23
2019-06-07T13:06:06.274Z,31.45
2019-06-07T13:08:56.221Z,32.57
2019-06-07T13:11:46.060Z,32.88
2019-06-07T13:14:48.358Z,32.43
2019-06-07T13:17:20.383Z,32.91
2019-06-07T13:19:57.579Z,33.70
2019-06-07T13:22:47.436Z,33.66
2019-06-07T13:25:46.286Z,33.64
2019-06-07T13:28:20.744Z,33.60
2019-06-07T13:31:03.535Z,34.02
2019-06-07T13:33:54.326Z,34.30
2019-06-07T13:36:44.138Z,35.02
2019-06-07T13:39:52.989Z,35.12
2019-06-07T13:42:42.811Z,35.58
2019-06-07T13:45:32.672Z,35.60
2019-06-07T13:48:23.342Z,35.05
2019-06-07T13:51:06.116Z,34.79
2019-06-07T13:53:55.892Z,34.75
2019-06-07T13:57:01.672Z,35.35
2019-06-07T13:59:31.133Z,35.39
2019-06-07T14:02:21.187Z,35.05
2019-06-07T14:05:14.495Z,34.44
2019-06-07T14:08:04.341Z,34.46
2019-06-07T14:10:35.172Z,34.64
2019-06-07T14:13:05.890Z,34.27
2019-06-07T14:15:55.740Z,33.77
2019-06-07T14:18:45.600Z,33.61
2019-06-07T14:21:54.451Z,34.60
2019-06-07T14:24:44.256Z,35.74
2019-06-07T14:27:34.059Z,36.71
2019-06-07T14:30:24.068Z,38.17
2019-06-07T14:33:13.981Z,38.42
2019-06-07T14:36:03.940Z,39.34
2019-06-07T14:38:53.819Z,39.69
2019-06-07T14:41:43.839Z,39.57
2019-06-07T14:44:14.395Z,39.56
2019-06-07T14:47:04.284Z,39.12
2019-06-07T14:49:34.830Z,39.66
2019-06-07T14:52:05.402Z,40.55
2019-06-07T14:54:55.265Z,41.13
2019-06-07T14:57:45.123Z,41.62
2019-06-07T15:03:48.439Z,42.35
2019-06-07T15:06:38.945Z,42.03
2019-06-07T15:09:16.038Z,42.48
2019-06-07T15:12:05.939Z,42.46
2019-06-07T15:14:55.908Z,43.00
2019-06-07T15:17:45.738Z,42.90
2019-06-07T15:20:36.398Z,42.32
2019-06-07T15:23:19.374Z,41.88
2019-06-07T15:26:09.265Z,42.58
2019-06-07T15:28:59.079Z,42.98
2019-06-07T15:31:48.961Z,42.65
2019-06-07T15:34:38.816Z,43.55
2019-06-07T15:37:28.699Z,44.09
2019-06-07T15:43:01.916Z,44.31
2019-06-07T15:45:51.730Z,44.09
2019-06-07T15:48:41.565Z,43.67
2019-06-07T15:54:21.659Z,43.54
2019-06-07T15:59:59.041Z,43.83
2019-06-07T16:02:48.923Z,44.39
2019-06-07T16:05:19.752Z,43.91
2019-06-07T16:08:09.669Z,43.84
2019-06-07T16:10:59.525Z,43.52
2019-06-07T16:13:50.221Z,44.07
2019-06-07T16:16:41.386Z,43.68
2019-06-07T16:19:23.967Z,44.45
2019-06-07T16:22:13.816Z,44.01
2019-06-07T16:25:03.716Z,44.50
2019-06-07T16:27:53.883Z,43.77
2019-06-07T16:30:44.831Z,44.16
2019-06-07T16:33:26.792Z,43.96
2019-06-07T16:36:16.643Z,43.52
2019-06-07T16:42:12.232Z,43.89
2019-06-07T16:45:02.071Z,44.01
2019-06-07T16:47:51.894Z,43.67
2019-06-07T16:50:42.717Z,43.96
2019-06-07T16:53:24.678Z,43.82
2019-06-07T16:56:14.569Z,43.98
2019-06-07T16:58:46.433Z,43.26
2019-06-07T17:01:36.947Z,43.48
2019-06-07T17:04:19.608Z,43.37
2019-06-07T17:07:09.546Z,43.07
2019-06-07T17:09:40.241Z,43.06
2019-06-07T17:12:30.065Z,42.94
2019-06-07T17:18:24.257Z,42.28
2019-06-07T17:21:14.090Z,42.25
2019-06-07T17:24:04.033Z,41.53
2019-06-07T17:26:53.889Z,41.62
2019-06-07T17:29:44.169Z,41.27
2019-06-07T17:32:47.688Z,40.80
2019-06-07T17:35:11.606Z,40.74
2019-06-07T17:38:01.516Z,40.23
2019-06-07T17:40:51.373Z,39.87
2019-06-07T17:43:52.050Z,39.46
2019-06-07T17:46:32.786Z,39.29
2019-06-07T17:49:22.691Z,39.16
2019-06-07T17:52:31.469Z,38.50
2019-06-07T17:55:21.482Z,37.74
2019-06-07T17:58:11.338Z,37.14
2019-06-07T18:01:01.255Z,35.99
2019-06-07T18:03:51.349Z,34.76
2019-06-07T18:06:41.315Z,33.28
2019-06-07T18:09:31.251Z,32.18
2019-06-07T18:12:21.171Z,31.36
2019-06-07T18:18:16.621Z,29.95
2019-06-07T18:21:07.367Z,29.41
2019-06-07T18:23:58.597Z,28.77
2019-06-07T18:26:40.537Z,28.26
2019-06-07T18:29:30.380Z,27.81
2019-06-07T18:32:20.229Z,27.33
2019-06-07T18:34:50.837Z,26.97
2019-06-07T18:37:40.726Z,26.67
2019-06-07T18:43:16.654Z,26.05
2019-06-07T18:46:06.531Z,25.75
2019-06-07T18:48:56.445Z,25.46
2019-06-07T18:54:31.071Z,25.00
2019-06-07T18:57:01.636Z,24.77
2019-06-07T18:59:52.313Z,24.56
2019-06-07T19:02:34.542Z,24.42
2019-06-07T19:08:08.748Z,24.00
2019-06-07T19:10:58.965Z,23.85
2019-06-07T19:13:41.898Z,23.71
2019-06-07T19:16:31.750Z,23.56
2019-06-07T19:19:21.660Z,23.42
2019-06-07T19:22:11.469Z,23.31
2019-06-07T19:25:01.378Z,23.18
2019-06-07T19:27:52.589Z,23.06
2019-06-07T19:30:34.158Z,22.92
2019-06-07T19:33:24.161Z,22.85
2019-06-07T19:36:14.011Z,22.71
2019-06-07T19:39:05.167Z,22.58
2019-06-07T19:41:55.913Z,22.48
2019-06-07T19:44:32.825Z,22.36
2019-06-07T19:47:22.717Z,22.28
2019-06-07T19:50:12.695Z,22.16
2019-06-07T19:53:03.926Z,22.04
2019-06-07T19:55:45.687Z,22.00
2019-06-07T19:58:37.700Z,21.95
2019-06-07T20:01:27.568Z,21.86
2019-06-07T20:04:17.406Z,21.91
2019-06-07T20:07:07.422Z,21.80
2019-06-07T20:09:58.627Z,21.65
2019-06-07T20:12:40.417Z,21.54
2019-06-07T20:15:30.258Z,21.44
2019-06-07T20:18:20.113Z,21.35
2019-06-07T20:21:09.968Z,21.29
2019-06-07T20:24:11.228Z,21.31
2019-06-07T20:26:44.012Z,21.31
2019-06-07T20:29:33.865Z,21.26
2019-06-07T20:32:23.669Z,21.25
2019-06-07T20:35:13.488Z,21.13
2019-06-07T20:38:03.976Z,21.00
2019-06-07T20:40:46.716Z,20.95
2019-06-07T20:43:17.284Z,20.89
2019-06-07T20:46:08.224Z,20.82
2019-06-07T20:48:49.959Z,20.73
2019-06-07T20:51:39.831Z,20.69
2019-06-07T20:54:29.654Z,20.62
2019-06-07T20:57:19.536Z,20.63
2019-06-07T21:00:20.402Z,20.60
2019-06-07T21:02:47.513Z,20.53
2019-06-07T21:05:37.411Z,20.47
2019-06-07T21:08:27.704Z,20.41
2019-06-07T21:11:17.563Z,20.35
2019-06-07T21:14:08.218Z,20.30
2019-06-07T21:16:59.761Z,20.29
2019-06-07T21:19:36.746Z,20.25
2019-06-07T21:22:26.583Z,20.23
2019-06-07T21:25:16.424Z,20.21
2019-06-07T21:28:07.249Z,20.14
2019-06-07T21:30:49.621Z,20.10
2019-06-07T21:33:39.482Z,20.04
2019-06-07T21:36:29.297Z,20.00
2019-06-07T21:39:19.146Z,19.94
2019-06-07T21:42:10.236Z,19.88
2019-06-07T21:44:52.590Z,19.84
2019-06-07T21:47:42.507Z,19.83
2019-06-07T21:50:32.649Z,19.79
2019-06-07T21:53:22.504Z,19.79
2019-06-07T21:56:13.443Z,19.72
2019-06-07T21:58:56.945Z,19.71
2019-06-07T22:01:47.856Z,19.63
2019-06-07T22:04:56.736Z,19.64
2019-06-07T22:07:46.969Z,19.60
2019-06-07T22:10:36.851Z,19.52
2019-06-07T22:13:26.776Z,19.50
2019-06-07T22:16:28.530Z,19.50
2019-06-07T22:18:59.953Z,19.43
2019-06-07T22:22:02.276Z,19.37
2019-06-07T22:24:32.400Z,19.30
2019-06-07T22:27:22.226Z,19.23
2019-06-07T22:33:15.770Z,19.13
2019-06-07T22:36:06.821Z,19.15
2019-06-07T22:38:48.584Z,19.09
2019-06-07T22:41:38.481Z,19.05
2019-06-07T22:44:28.738Z,19.00
2019-06-07T22:47:18.670Z,18.94
2019-06-07T22:53:11.988Z,18.85
2019-06-07T22:58:58.147Z,18.75
2019-06-07T23:01:47.992Z,18.74
2019-06-07T23:04:37.879Z,18.67
2019-06-07T23:07:27.676Z,18.61
2019-06-07T23:09:58.133Z,18.56
2019-06-07T23:15:50.129Z,18.51
2019-06-07T23:18:41.144Z,18.50
2019-06-07T23:21:31.073Z,18.46
2019-06-07T23:24:01.529Z,18.40
2019-06-07T23:26:51.393Z,18.36
2019-06-07T23:29:21.960Z,18.30
2019-06-07T23:32:12.689Z,18.29
2019-06-07T23:34:55.193Z,18.28
2019-06-07T23:37:45.062Z,18.23
2019-06-07T23:40:34.901Z,18.19
2019-06-07T23:43:24.758Z,18.13
2019-06-07T23:46:15.304Z,18.08
2019-06-07T23:48:57.620Z,18.04
2019-06-07T23:51:47.478Z,17.99
2019-06-07T23:54:37.316Z,17.93
2019-06-07T23:57:27.159Z,17.94
